createdAt,value
2019-03-09T00:01:28.181Z,6.44
2019-03-09T00:03:55.891Z,6.45
2019-03-09T00:06:24.656Z,6.41
2019-03-09T00:08:52.380Z,6.36
2019-03-09T00:11:21.380Z,6.42
2019-03-09T00:13:50.890Z,6.49
2019-03-09T00:16:17.801Z,6.58
2019-03-09T00:18:45.141Z,6.58
2019-03-09T00:21:12.272Z,6.62
2019-03-09T00:23:41.765Z,6.54
2019-03-09T00:26:11.213Z,6.56
2019-03-09T00:28:49.982Z,6.62
2019-03-09T00:31:19.183Z,6.61
2019-03-09T00:33:49.254Z,6.64
2019-03-09T00:36:16.402Z,6.67
2019-03-09T00:38:43.737Z,6.62
2019-03-09T00:41:10.521Z,6.54
2019-03-09T00:43:37.915Z,6.49
2019-03-09T00:46:06.428Z,6.51
2019-03-09T00:48:33.301Z,6.56
2019-03-09T00:51:00.220Z,6.69
2019-03-09T00:53:27.619Z,6.73
2019-03-09T00:55:54.820Z,6.78
2019-03-09T00:58:21.603Z,6.74
2019-03-09T01:00:48.688Z,6.73
2019-03-09T01:03:15.979Z,6.79
2019-03-09T01:05:43.254Z,6.85
2019-03-09T01:08:10.632Z,6.96
2019-03-09T01:10:37.805Z,6.98
2019-03-09T01:13:07.557Z,7.11
2019-03-09T01:15:34.334Z,7.30
2019-03-09T01:18:02.108Z,7.40
2019-03-09T01:20:29.410Z,7.57
2019-03-09T01:22:56.525Z,7.78
2019-03-09T01:25:23.496Z,7.94
2019-03-09T01:27:50.482Z,8.09
2019-03-09T01:30:17.559Z,8.20
2019-03-09T01:32:45.104Z,8.32
2019-03-09T01:35:13.042Z,8.42
2019-03-09T01:37:40.210Z,8.47
2019-03-09T01:40:12.071Z,8.52
2019-03-09T01:42:39.153Z,8.56
2019-03-09T01:45:13.641Z,8.62
2019-03-09T01:47:41.001Z,8.69
2019-03-09T01:50:09.217Z,8.77
2019-03-09T01:52:36.601Z,8.82
2019-03-09T01:55:10.104Z,8.85
2019-03-09T01:57:37.770Z,8.85
2019-03-09T02:00:09.246Z,8.90
2019-03-09T02:02:36.449Z,8.93
2019-03-09T02:05:05.645Z,8.95
2019-03-09T02:07:36.347Z,8.97
2019-03-09T02:10:12.679Z,9.01
2019-03-09T02:12:41.539Z,9.04
2019-03-09T02:15:12.466Z,9.07
2019-03-09T02:17:39.868Z,9.05
2019-03-09T02:20:12.236Z,9.08
2019-03-09T02:22:39.212Z,9.13
2019-03-09T02:25:08.325Z,9.14
2019-03-09T02:27:37.957Z,9.15
2019-03-09T02:30:18.760Z,9.13
2019-03-09T02:32:45.973Z,9.11
2019-03-09T02:35:17.371Z,9.10
2019-03-09T02:37:44.591Z,9.13
2019-03-09T02:40:17.395Z,9.16
2019-03-09T02:42:44.272Z,9.17
2019-03-09T02:45:15.742Z,9.21
2019-03-09T02:47:43.389Z,9.22
2019-03-09T02:50:13.216Z,9.24
2019-03-09T02:52:41.477Z,9.25
2019-03-09T02:55:12.009Z,9.27
2019-03-09T02:57:39.096Z,9.27
2019-03-09T03:00:17.685Z,9.27
2019-03-09T03:02:49.490Z,9.29
2019-03-09T03:05:16.640Z,9.28
2019-03-09T03:07:43.761Z,9.29
2019-03-09T03:10:11.293Z,9.31
2019-03-09T03:12:38.286Z,9.33
2019-03-09T03:15:10.417Z,9.34
2019-03-09T03:17:37.487Z,9.34
2019-03-09T03:20:07.575Z,9.34
2019-03-09T03:22:34.360Z,9.34
2019-03-09T03:25:02.372Z,9.33
2019-03-09T03:27:29.163Z,9.32
2019-03-09T03:29:56.282Z,9.32
2019-03-09T03:32:25.405Z,9.32
2019-03-09T03:34:52.380Z,9.33
2019-03-09T03:37:19.268Z,9.32
2019-03-09T03:39:46.691Z,9.29
2019-03-09T03:42:14.384Z,9.22
2019-03-09T03:44:44.401Z,9.24
2019-03-09T03:47:12.114Z,9.24
2019-03-09T03:49:39.230Z,9.23
2019-03-09T03:52:06.432Z,9.24
2019-03-09T03:54:33.313Z,9.23
2019-03-09T03:57:00.541Z,9.19
2019-03-09T03:59:27.540Z,9.15
2019-03-09T04:01:54.754Z,9.12
2019-03-09T04:04:22.040Z,9.13
2019-03-09T04:06:49.125Z,9.07
2019-03-09T04:09:16.518Z,9.03
2019-03-09T04:11:43.315Z,9.00
2019-03-09T04:14:10.106Z,8.96
2019-03-09T04:16:38.983Z,8.89
2019-03-09T04:19:06.348Z,8.87
2019-03-09T04:21:33.598Z,8.83
2019-03-09T04:24:00.517Z,8.78
2019-03-09T04:26:27.676Z,8.72
2019-03-09T04:28:54.968Z,8.63
2019-03-09T04:31:22.659Z,8.54
2019-03-09T04:33:49.667Z,8.54
2019-03-09T04:36:16.441Z,8.53
2019-03-09T04:38:43.235Z,8.51
2019-03-09T04:41:10.096Z,8.41
2019-03-09T04:43:36.895Z,8.37
2019-03-09T04:46:03.981Z,8.30
2019-03-09T04:48:30.781Z,8.32
2019-03-09T04:50:57.973Z,8.25
2019-03-09T04:53:24.834Z,8.24
2019-03-09T04:55:51.704Z,8.21
2019-03-09T04:58:18.596Z,8.11
2019-03-09T05:00:45.512Z,8.05
2019-03-09T05:03:12.586Z,8.00
2019-03-09T05:05:39.887Z,7.97
2019-03-09T05:08:12.859Z,7.88
2019-03-09T05:10:48.411Z,7.89
2019-03-09T05:13:23.936Z,7.83
2019-03-09T05:15:50.816Z,7.80
2019-03-09T05:18:17.891Z,7.75
2019-03-09T05:20:44.719Z,7.71
2019-03-09T05:23:11.475Z,7.66
2019-03-09T05:25:38.298Z,7.60
2019-03-09T05:28:05.500Z,7.60
2019-03-09T05:30:38.873Z,7.61
2019-03-09T05:33:05.809Z,7.63
2019-03-09T05:35:32.570Z,7.65
2019-03-09T05:37:59.436Z,7.65
2019-03-09T05:40:26.807Z,7.69
2019-03-09T05:42:53.640Z,7.63
2019-03-09T05:45:20.389Z,7.64
2019-03-09T05:47:47.143Z,7.69
2019-03-09T05:50:14.142Z,7.75
2019-03-09T05:52:41.219Z,7.79
2019-03-09T05:55:11.348Z,7.80
2019-03-09T05:57:38.165Z,7.81
2019-03-09T06:00:10.813Z,7.78
2019-03-09T06:02:37.808Z,7.84
2019-03-09T06:05:26.865Z,7.83
2019-03-09T06:07:53.768Z,7.84
2019-03-09T06:10:20.968Z,7.80
2019-03-09T06:12:48.149Z,7.86
2019-03-09T06:15:14.993Z,7.87
2019-03-09T06:17:42.058Z,7.90
2019-03-09T06:20:09.354Z,7.91
2019-03-09T06:22:36.432Z,7.94
2019-03-09T06:25:05.216Z,7.96
2019-03-09T06:27:32.549Z,8.04
2019-03-09T06:29:59.798Z,8.05
2019-03-09T06:32:35.481Z,8.00
2019-03-09T06:35:13.768Z,7.99
2019-03-09T06:37:49.291Z,8.05
2019-03-09T06:40:16.287Z,8.09
2019-03-09T06:42:46.864Z,8.09
2019-03-09T06:45:13.810Z,8.14
2019-03-09T06:47:40.606Z,8.18
2019-03-09T06:50:12.487Z,8.24
2019-03-09T06:52:39.317Z,8.25
2019-03-09T06:55:11.828Z,8.29
2019-03-09T06:57:38.842Z,8.33
2019-03-09T07:00:27.936Z,8.36
2019-03-09T07:02:54.929Z,8.40
2019-03-09T07:05:21.799Z,8.42
2019-03-09T07:07:48.574Z,8.45
2019-03-09T07:10:15.458Z,8.48
2019-03-09T07:12:42.327Z,8.47
2019-03-09T07:15:28.848Z,8.48
2019-03-09T07:18:08.524Z,8.52
2019-03-09T07:20:35.336Z,8.53
2019-03-09T07:23:02.471Z,8.55
2019-03-09T07:25:29.564Z,8.60
2019-03-09T07:28:09.087Z,8.66
2019-03-09T07:30:36.772Z,8.73
2019-03-09T07:33:04.047Z,8.82
2019-03-09T07:35:31.687Z,8.86
2019-03-09T07:37:58.808Z,8.88
2019-03-09T07:40:25.588Z,8.92
2019-03-09T07:42:52.474Z,8.94
2019-03-09T07:45:19.470Z,9.00
2019-03-09T07:47:46.786Z,9.00
2019-03-09T07:50:16.483Z,9.05
2019-03-09T07:52:43.726Z,9.14
2019-03-09T07:55:16.157Z,9.20
2019-03-09T07:57:43.228Z,9.27
2019-03-09T08:00:15.125Z,9.35
2019-03-09T08:02:42.189Z,9.41
2019-03-09T08:05:09.873Z,9.45
2019-03-09T08:07:38.388Z,9.51
2019-03-09T08:10:16.548Z,9.63
2019-03-09T08:12:45.588Z,9.70
2019-03-09T08:15:18.820Z,9.73
2019-03-09T08:17:46.339Z,9.78
2019-03-09T08:20:16.510Z,9.85
2019-03-09T08:22:44.056Z,9.97
2019-03-09T08:25:13.917Z,10.12
2019-03-09T08:27:40.823Z,10.26
2019-03-09T08:30:15.767Z,10.42
2019-03-09T08:32:42.634Z,10.48
2019-03-09T08:35:10.843Z,10.60
2019-03-09T08:37:38.154Z,10.60
2019-03-09T08:40:19.058Z,10.53
2019-03-09T08:42:46.668Z,10.67
2019-03-09T08:45:20.123Z,10.85
2019-03-09T08:47:52.059Z,11.05
2019-03-09T08:50:19.866Z,11.13
2019-03-09T08:52:47.489Z,11.19
2019-03-09T08:55:17.996Z,11.38
2019-03-09T08:57:45.300Z,11.48
2019-03-09T09:00:24.037Z,11.67
2019-03-09T09:02:51.306Z,11.75
2019-03-09T09:05:18.725Z,11.82
2019-03-09T09:07:46.043Z,12.01
2019-03-09T09:10:13.252Z,12.08
2019-03-09T09:12:40.275Z,11.93
2019-03-09T09:15:14.665Z,11.84
2019-03-09T09:17:41.179Z,11.68
2019-03-09T09:20:24.978Z,11.73
2019-03-09T09:22:52.538Z,11.78
2019-03-09T09:25:19.995Z,11.78
2019-03-09T09:27:47.290Z,11.74
2019-03-09T09:30:21.396Z,11.80
2019-03-09T09:32:48.201Z,11.79
2019-03-09T09:35:16.408Z,11.85
2019-03-09T09:37:43.485Z,11.83
2019-03-09T09:40:19.546Z,11.63
2019-03-09T09:42:46.671Z,11.53
2019-03-09T09:45:13.812Z,11.45
2019-03-09T09:47:42.441Z,11.44
2019-03-09T09:50:15.346Z,11.44
2019-03-09T09:52:42.669Z,11.46
2019-03-09T09:55:13.865Z,11.39
2019-03-09T09:57:40.691Z,11.39
2019-03-09T10:00:22.247Z,11.50
2019-03-09T10:02:49.283Z,11.60
2019-03-09T10:05:18.437Z,11.57
2019-03-09T10:07:45.520Z,11.53
2019-03-09T10:10:20.290Z,11.51
2019-03-09T10:12:47.720Z,11.48
2019-03-09T10:15:31.153Z,11.62
2019-03-09T10:17:57.938Z,11.69
2019-03-09T10:20:25.016Z,11.78
2019-03-09T10:23:02.753Z,11.81
2019-03-09T10:25:20.920Z,11.98
2019-03-09T10:27:49.323Z,12.06
2019-03-09T10:30:23.880Z,12.23
2019-03-09T10:32:52.073Z,12.21
2019-03-09T10:35:19.091Z,12.15
2019-03-09T10:37:47.553Z,12.22
2019-03-09T10:40:15.261Z,12.34
2019-03-09T10:42:42.666Z,12.31
2019-03-09T10:45:16.540Z,12.29
2019-03-09T10:47:44.111Z,12.22
2019-03-09T10:50:16.219Z,12.34
2019-03-09T10:52:43.308Z,12.28
2019-03-09T10:55:26.227Z,12.09
2019-03-09T10:57:53.251Z,12.05
2019-03-09T11:00:36.120Z,11.99
2019-03-09T11:03:04.141Z,11.93
2019-03-09T11:05:31.454Z,11.93
2019-03-09T11:07:58.732Z,11.85
2019-03-09T11:10:25.889Z,11.84
2019-03-09T11:12:52.663Z,11.69
2019-03-09T11:15:20.090Z,11.69
2019-03-09T11:17:47.052Z,11.72
2019-03-09T11:20:17.305Z,11.79
2019-03-09T11:22:44.377Z,11.82
2019-03-09T11:25:12.785Z,11.69
2019-03-09T11:27:39.587Z,11.61
2019-03-09T11:30:22.964Z,11.58
2019-03-09T11:32:50.926Z,11.59
2019-03-09T11:35:18.136Z,11.53
2019-03-09T11:37:46.019Z,11.59
2019-03-09T11:40:13.921Z,11.59
2019-03-09T11:42:43.189Z,11.52
2019-03-09T11:45:18.357Z,11.47
2019-03-09T11:47:48.410Z,11.41
2019-03-09T11:50:18.266Z,11.37
2019-03-09T11:52:45.482Z,11.31
2019-03-09T11:55:14.539Z,11.30
2019-03-09T11:57:41.819Z,11.31
2019-03-09T12:00:24.408Z,11.34
2019-03-09T12:02:51.533Z,11.34
2019-03-09T12:05:18.352Z,11.33
2019-03-09T12:07:45.446Z,11.30
2019-03-09T12:10:12.598Z,11.34
2019-03-09T12:12:39.616Z,11.38
2019-03-09T12:15:11.278Z,11.34
2019-03-09T12:17:38.490Z,11.40
2019-03-09T12:20:08.566Z,11.45
2019-03-09T12:22:35.718Z,11.49
2019-03-09T12:25:13.693Z,11.47
2019-03-09T12:27:40.463Z,11.50
2019-03-09T12:30:11.770Z,11.59
2019-03-09T12:32:38.695Z,11.59
2019-03-09T12:35:07.612Z,11.44
2019-03-09T12:37:34.881Z,11.46
2019-03-09T12:40:04.492Z,11.47
2019-03-09T12:42:31.375Z,11.50
2019-03-09T12:44:58.237Z,11.58
2019-03-09T12:47:25.541Z,11.72
2019-03-09T12:49:52.315Z,11.79
2019-03-09T12:52:19.234Z,11.94
2019-03-09T12:54:46.288Z,12.10
2019-03-09T12:57:17.606Z,12.07
2019-03-09T12:59:48.235Z,12.04
2019-03-09T13:02:15.206Z,11.98
2019-03-09T13:04:42.524Z,12.04
2019-03-09T13:07:09.338Z,12.05
2019-03-09T13:09:36.685Z,12.05
2019-03-09T13:12:03.845Z,11.86
2019-03-09T13:14:30.706Z,11.69
2019-03-09T13:17:00.952Z,11.63
2019-03-09T13:19:27.768Z,11.47
2019-03-09T13:21:54.985Z,11.28
2019-03-09T13:24:21.726Z,11.26
2019-03-09T13:26:48.993Z,11.23
2019-03-09T13:29:16.275Z,11.26
2019-03-09T13:31:43.058Z,11.28
2019-03-09T13:34:09.972Z,11.20
2019-03-09T13:36:37.186Z,11.17
2019-03-09T13:39:05.162Z,11.10
2019-03-09T13:41:32.966Z,11.08
2019-03-09T13:44:00.149Z,11.10
2019-03-09T13:46:27.229Z,11.05
2019-03-09T13:48:54.075Z,10.97
2019-03-09T13:51:20.864Z,10.87
2019-03-09T13:53:50.575Z,10.81
2019-03-09T13:56:17.460Z,10.69
2019-03-09T13:58:44.840Z,10.58
2019-03-09T14:01:11.688Z,10.51
2019-03-09T14:03:38.563Z,10.43
2019-03-09T14:06:05.345Z,10.42
2019-03-09T14:08:32.434Z,10.43
2019-03-09T14:10:59.344Z,10.49
2019-03-09T14:13:26.146Z,10.51
2019-03-09T14:15:52.915Z,10.52
2019-03-09T14:18:20.301Z,10.53
2019-03-09T14:20:48.504Z,10.57
2019-03-09T14:23:15.479Z,10.52
2019-03-09T14:25:42.360Z,10.51
2019-03-09T14:28:09.199Z,10.60
2019-03-09T14:30:35.957Z,10.58
2019-03-09T14:33:04.030Z,10.61
2019-03-09T14:35:30.841Z,10.68
2019-03-09T14:37:57.824Z,10.73
2019-03-09T14:40:25.331Z,10.77
2019-03-09T14:42:52.173Z,10.87
2019-03-09T14:45:21.549Z,10.93
2019-03-09T14:47:48.643Z,10.97
2019-03-09T14:50:15.719Z,10.92
2019-03-09T14:52:42.980Z,10.85
2019-03-09T14:55:15.871Z,10.81
2019-03-09T14:57:45.564Z,10.77
2019-03-09T15:00:25.927Z,10.82
2019-03-09T15:02:53.070Z,10.86
2019-03-09T15:05:20.414Z,10.84
2019-03-09T15:07:47.750Z,10.77
2019-03-09T15:10:14.909Z,10.83
2019-03-09T15:12:41.786Z,10.83
2019-03-09T15:15:15.968Z,10.80
2019-03-09T15:17:43.055Z,10.81
2019-03-09T15:20:13.366Z,10.88
2019-03-09T15:22:40.727Z,10.85
2019-03-09T15:25:15.402Z,10.86
2019-03-09T15:27:42.462Z,10.83
2019-03-09T15:30:15.106Z,10.81
2019-03-09T15:32:42.132Z,10.77
2019-03-09T15:35:10.160Z,10.75
2019-03-09T15:37:37.889Z,10.76
2019-03-09T15:40:17.244Z,10.76
2019-03-09T15:42:45.061Z,10.73
2019-03-09T15:45:16.235Z,10.72
2019-03-09T15:47:43.294Z,10.71
2019-03-09T15:50:14.292Z,10.71
2019-03-09T15:52:41.306Z,10.73
2019-03-09T15:55:12.627Z,10.76
2019-03-09T15:57:39.700Z,10.79
2019-03-09T16:00:14.702Z,10.85
2019-03-09T16:02:42.144Z,10.91
2019-03-09T16:05:09.223Z,11.00
2019-03-09T16:07:36.528Z,11.06
2019-03-09T16:10:11.195Z,11.07
2019-03-09T16:12:38.689Z,11.04
2019-03-09T16:15:10.048Z,11.04
2019-03-09T16:17:37.517Z,11.04
2019-03-09T16:20:15.561Z,11.04
2019-03-09T16:22:43.016Z,11.04
2019-03-09T16:25:10.441Z,11.03
2019-03-09T16:27:43.644Z,11.04
2019-03-09T16:30:19.352Z,11.03
2019-03-09T16:32:46.509Z,11.04
2019-03-09T16:35:13.578Z,11.04
2019-03-09T16:37:40.449Z,11.04
2019-03-09T16:40:14.899Z,11.07
2019-03-09T16:42:42.696Z,11.09
2019-03-09T16:45:12.329Z,11.10
2019-03-09T16:47:39.290Z,11.09
2019-03-09T16:50:11.200Z,11.09
2019-03-09T16:52:38.407Z,11.12
2019-03-09T16:55:05.997Z,11.18
2019-03-09T16:57:33.174Z,11.20
2019-03-09T17:00:00.341Z,11.21
2019-03-09T17:02:28.141Z,11.24
2019-03-09T17:04:59.379Z,11.25
2019-03-09T17:07:26.825Z,11.22
2019-03-09T17:09:53.619Z,11.20
2019-03-09T17:12:20.392Z,11.21
2019-03-09T17:14:47.155Z,11.26
2019-03-09T17:17:13.925Z,11.25
2019-03-09T17:19:40.758Z,11.25
2019-03-09T17:22:07.647Z,11.31
2019-03-09T17:24:34.793Z,11.28
2019-03-09T17:27:02.158Z,11.28
2019-03-09T17:29:33.535Z,11.33
2019-03-09T17:32:00.596Z,11.32
2019-03-09T17:34:29.648Z,11.35
2019-03-09T17:37:01.289Z,11.38
2019-03-09T17:39:29.398Z,11.38
2019-03-09T17:41:56.756Z,11.33
2019-03-09T17:44:23.752Z,11.32
2019-03-09T17:46:52.885Z,11.34
2019-03-09T17:49:19.809Z,11.36
2019-03-09T17:51:48.541Z,11.37
2019-03-09T17:54:15.889Z,11.36
2019-03-09T17:56:44.148Z,11.34
2019-03-09T17:59:11.685Z,11.34
2019-03-09T18:01:38.437Z,11.34
2019-03-09T18:04:05.974Z,11.33
2019-03-09T18:06:33.900Z,11.38
2019-03-09T18:09:00.904Z,11.43
2019-03-09T18:11:28.018Z,11.37
2019-03-09T18:13:54.865Z,11.31
2019-03-09T18:16:21.714Z,11.28
2019-03-09T18:18:48.634Z,11.30
2019-03-09T18:21:15.404Z,11.31
2019-03-09T18:23:43.106Z,11.33
2019-03-09T18:26:10.126Z,11.33
2019-03-09T18:28:37.068Z,11.32
2019-03-09T18:31:06.204Z,11.30
2019-03-09T18:33:33.897Z,11.36
2019-03-09T18:36:00.888Z,11.38
2019-03-09T18:38:29.747Z,11.36
2019-03-09T18:40:56.901Z,11.32
2019-03-09T18:43:24.098Z,11.30
2019-03-09T18:45:51.020Z,11.29
2019-03-09T18:48:18.015Z,11.31
2019-03-09T18:50:44.965Z,11.32
2019-03-09T18:53:11.853Z,11.33
2019-03-09T18:55:38.857Z,11.30
2019-03-09T18:58:05.737Z,11.27
2019-03-09T19:00:32.611Z,11.27
2019-03-09T19:02:59.349Z,11.29
2019-03-09T19:05:26.408Z,11.31
2019-03-09T19:07:53.315Z,11.36
2019-03-09T19:10:22.494Z,11.37
2019-03-09T19:12:49.357Z,11.35
2019-03-09T19:15:17.833Z,11.33
2019-03-09T19:17:44.999Z,11.32
2019-03-09T19:20:17.907Z,11.34
2019-03-09T19:22:45.330Z,11.31
2019-03-09T19:25:13.663Z,11.30
2019-03-09T19:27:40.763Z,11.32
2019-03-09T19:30:17.081Z,11.33
2019-03-09T19:32:44.065Z,11.33
2019-03-09T19:35:11.113Z,11.32
2019-03-09T19:37:38.230Z,11.30
2019-03-09T19:40:12.715Z,11.31
2019-03-09T19:42:39.501Z,11.29
2019-03-09T19:45:14.310Z,11.28
2019-03-09T19:47:41.469Z,11.32
2019-03-09T19:50:12.912Z,11.32
2019-03-09T19:52:39.767Z,11.31
2019-03-09T19:55:07.923Z,11.28
2019-03-09T19:57:34.792Z,11.29
2019-03-09T20:00:04.973Z,11.29
2019-03-09T20:02:31.825Z,11.28
2019-03-09T20:04:58.617Z,11.28
2019-03-09T20:07:25.439Z,11.31
2019-03-09T20:09:56.465Z,11.32
2019-03-09T20:12:23.690Z,11.30
2019-03-09T20:14:50.682Z,11.31
2019-03-09T20:17:17.755Z,11.30
2019-03-09T20:19:45.137Z,11.30
2019-03-09T20:22:12.061Z,11.32
2019-03-09T20:24:39.320Z,11.33
2019-03-09T20:27:06.372Z,11.32
2019-03-09T20:29:34.865Z,11.32
2019-03-09T20:32:01.627Z,11.32
2019-03-09T20:34:28.817Z,11.33
2019-03-09T20:36:56.449Z,11.34
2019-03-09T20:39:23.507Z,11.32
2019-03-09T20:41:50.243Z,11.34
2019-03-09T20:44:17.410Z,11.36
2019-03-09T20:46:44.225Z,11.36
2019-03-09T20:49:11.718Z,11.36
2019-03-09T20:51:38.675Z,11.38
2019-03-09T20:54:05.854Z,11.38
2019-03-09T20:56:33.483Z,11.38
2019-03-09T20:59:00.656Z,11.37
2019-03-09T21:01:28.453Z,11.37
2019-03-09T21:03:56.026Z,11.40
2019-03-09T21:06:22.878Z,11.41
2019-03-09T21:08:51.998Z,11.43
2019-03-09T21:11:19.168Z,11.40
2019-03-09T21:13:46.024Z,11.39
2019-03-09T21:16:13.122Z,11.41
2019-03-09T21:18:40.039Z,11.43
2019-03-09T21:21:07.036Z,11.44
2019-03-09T21:23:35.505Z,11.43
2019-03-09T21:26:03.109Z,11.41
2019-03-09T21:28:30.025Z,11.43
2019-03-09T21:30:59.609Z,11.43
2019-03-09T21:33:26.404Z,11.42
2019-03-09T21:35:53.715Z,11.45
2019-03-09T21:38:20.715Z,11.46
2019-03-09T21:40:47.446Z,11.46
2019-03-09T21:43:14.631Z,11.46
2019-03-09T21:45:41.461Z,11.46
2019-03-09T21:48:08.551Z,11.45
2019-03-09T21:50:35.425Z,11.43
2019-03-09T21:53:02.819Z,11.44
2019-03-09T21:55:29.784Z,11.47
2019-03-09T21:57:56.614Z,11.48
2019-03-09T22:00:23.386Z,11.51
2019-03-09T22:02:50.801Z,11.52
2019-03-09T22:05:17.912Z,11.50
2019-03-09T22:07:44.710Z,11.53
2019-03-09T22:10:13.477Z,11.51
2019-03-09T22:12:40.310Z,11.49
2019-03-09T22:15:17.886Z,11.50
2019-03-09T22:17:44.951Z,11.51
2019-03-09T22:20:13.693Z,11.52
2019-03-09T22:22:43.069Z,11.52
2019-03-09T22:25:11.973Z,11.52
2019-03-09T22:27:39.133Z,11.55
2019-03-09T22:30:11.586Z,11.57
2019-03-09T22:32:38.734Z,11.59
2019-03-09T22:35:09.744Z,11.58
2019-03-09T22:37:38.352Z,11.56
2019-03-09T22:40:13.032Z,11.53
2019-03-09T22:42:40.050Z,11.56
2019-03-09T22:45:12.046Z,11.54
2019-03-09T22:47:38.902Z,11.52
2019-03-09T22:50:21.946Z,11.41
2019-03-09T22:52:49.140Z,11.23
2019-03-09T22:55:16.195Z,11.08
2019-03-09T22:57:43.283Z,11.02
2019-03-09T23:00:14.712Z,10.99
2019-03-09T23:02:41.916Z,10.96
2019-03-09T23:05:10.097Z,10.98
2019-03-09T23:07:37.406Z,11.00
2019-03-09T23:10:23.453Z,11.04
2019-03-09T23:12:50.391Z,11.08
2019-03-09T23:15:18.124Z,11.12
2019-03-09T23:17:45.361Z,11.18
2019-03-09T23:20:14.960Z,11.20
2019-03-09T23:22:42.026Z,11.24
2019-03-09T23:25:10.751Z,11.21
2019-03-09T23:27:37.743Z,11.20
2019-03-09T23:30:19.551Z,11.20
2019-03-09T23:32:47.576Z,11.21
2019-03-09T23:35:14.754Z,11.24
2019-03-09T23:37:41.920Z,11.21
2019-03-09T23:40:21.007Z,11.18
2019-03-09T23:42:48.010Z,11.15
2019-03-09T23:45:26.905Z,11.13
2019-03-09T23:47:53.877Z,11.15
2019-03-09T23:50:21.056Z,11.15
2019-03-09T23:52:48.600Z,11.18
2019-03-09T23:55:21.960Z,11.17
2019-03-09T23:57:46.867Z,11.16
